map of PBC home
PBC - Airport
Location
City:  Puebla, Puebla, México
Near (Alt.):Huejotsingo
Name:Hermanos Serdán International Airport
Old (Alt.):Puebla International Airport
ICAO:MMPB
IATA:PBC

Details
Type:Airport (Aerodrome, Airfield)
Use:Public/Civil, International (customs port of entry)
Latitude:19°09'29"N (19.158144)
Longitude:98°22'17"W (-98.371446)
Datum:WGS 1984
Elevation:7361 ft (2244 m)
Variation:4.27°E (WMM2015 magnetic declination)
-0.12° annual change
Runways:1
Longest:11811 × 148 ft (3600 × 45 m), paved

Time
Time Zone:UTC-6 (DST-5)
Local Time:

Weather
METAR:MMPB 200216Z 12007KT 7SM -RA SCT020CB SCT080 BKN220 15/13 A3027 RMK 8/362 -RAB14

Related Locations
Nearby:
Farthest:NKW: 11414 mi / 18369 km
Diego Garcia, Chagos Archipelago, IO

Find:

   beyond  
but within

Other Information
Maps:
NOTAMs:
Links:
Sources:

  
  • flag of México
  • flag of Puebla
  

Sectional Chart

Flight Planning
at skyvector.com

Satellite Image

Google Maps Satellite view

 

Copyright © 2004-2018 Karl L. Swartz. All rights reserved.
The Great Circle Mapper name and logo are trademarks of the Great Circle Mapper.
All other trademarks mentioned herein belong to their respective owners.
Please see credits for attibutions and further copyright information.

  Follow gcmap on Facebook Follow gcmap on Twitter Follow gcmap on Google+ GCmap on LinkedIn

hCard Microformat

Geo Microformat